createdAt,value
2017-10-29T00:00:28.918Z,997.45
2017-10-29T00:01:28.881Z,997.45
2017-10-29T00:02:28.873Z,997.41
2017-10-29T00:03:28.862Z,997.40
2017-10-29T00:04:28.853Z,997.41
2017-10-29T00:05:28.841Z,997.40
2017-10-29T00:06:28.835Z,997.32
2017-10-29T00:07:28.858Z,997.24
2017-10-29T00:08:28.814Z,997.21
2017-10-29T00:09:28.803Z,997.35
2017-10-29T00:10:28.794Z,997.19
2017-10-29T00:11:28.785Z,997.12
2017-10-29T00:12:28.777Z,997.07
2017-10-29T00:13:28.771Z,997.10
2017-10-29T00:14:28.757Z,997.13
2017-10-29T00:15:28.757Z,997.09
2017-10-29T00:16:28.739Z,997.16
2017-10-29T00:17:28.726Z,996.99
2017-10-29T00:18:28.718Z,997.01
2017-10-29T00:19:28.710Z,997.00
2017-10-29T00:20:28.697Z,996.88
2017-10-29T00:21:28.688Z,996.97
2017-10-29T00:22:28.694Z,996.89
2017-10-29T00:23:28.669Z,996.86
2017-10-29T00:24:28.660Z,996.95
2017-10-29T00:25:28.655Z,997.02
2017-10-29T00:26:28.649Z,996.95
2017-10-29T00:27:28.633Z,997.08
2017-10-29T00:28:28.628Z,996.84
2017-10-29T00:29:28.614Z,997.00
2017-10-29T00:30:28.604Z,996.98
2017-10-29T00:31:28.602Z,996.94
2017-10-29T00:32:28.587Z,996.92
2017-10-29T00:33:28.575Z,996.95
2017-10-29T00:34:28.576Z,996.98
2017-10-29T00:35:28.558Z,996.76
2017-10-29T00:36:28.546Z,997.01
2017-10-29T00:37:28.542Z,996.90
2017-10-29T00:38:28.527Z,997.01
2017-10-29T00:39:28.517Z,996.90
2017-10-29T00:40:28.515Z,996.95
2017-10-29T00:41:28.504Z,996.86
2017-10-29T00:42:28.488Z,996.53
2017-10-29T00:43:28.479Z,996.81
2017-10-29T00:44:28.475Z,996.81
2017-10-29T00:45:28.469Z,996.82
2017-10-29T00:46:28.460Z,996.83
2017-10-29T00:47:28.442Z,996.77
2017-10-29T00:48:28.431Z,996.68
2017-10-29T00:49:28.423Z,996.69
2017-10-29T00:50:28.412Z,996.61
2017-10-29T00:51:28.409Z,996.64
2017-10-29T00:52:28.392Z,996.67
2017-10-29T00:53:28.386Z,996.60
2017-10-29T00:54:28.374Z,996.60
2017-10-29T00:55:28.366Z,996.68
2017-10-29T00:56:28.353Z,996.68
2017-10-29T00:57:28.350Z,996.62
2017-10-29T00:58:28.346Z,996.70
2017-10-29T00:59:28.327Z,996.52
2017-10-29T01:00:28.321Z,996.56
2017-10-29T01:01:28.307Z,996.55
2017-10-29T01:02:28.297Z,996.31
2017-10-29T01:03:28.287Z,996.44
2017-10-29T01:04:28.278Z,996.43
2017-10-29T01:05:28.269Z,996.25
2017-10-29T01:06:28.266Z,996.35
2017-10-29T01:07:28.249Z,996.40
2017-10-29T01:08:28.240Z,996.51
2017-10-29T01:09:28.231Z,996.41
2017-10-29T01:10:28.227Z,996.34
2017-10-29T01:11:28.215Z,996.38
2017-10-29T01:12:28.201Z,996.33
2017-10-29T01:13:28.191Z,996.12
2017-10-29T01:14:28.182Z,996.28
2017-10-29T01:15:28.173Z,996.31
2017-10-29T01:16:28.163Z,996.11
2017-10-29T01:17:28.159Z,996.08
2017-10-29T01:18:28.147Z,996.20
2017-10-29T01:19:28.132Z,995.98
2017-10-29T01:20:28.122Z,995.96
2017-10-29T01:21:28.113Z,996.06
2017-10-29T01:22:28.103Z,995.99
2017-10-29T01:23:28.094Z,995.85
2017-10-29T01:24:28.084Z,996.09
2017-10-29T01:25:28.075Z,996.13
2017-10-29T01:26:28.064Z,996.02
2017-10-29T01:27:28.059Z,996.12
2017-10-29T01:28:28.052Z,995.94
2017-10-29T01:29:28.045Z,995.98
2017-10-29T01:30:28.028Z,995.93
2017-10-29T01:31:28.016Z,995.88
2017-10-29T01:32:28.008Z,995.89
2017-10-29T01:33:27.997Z,995.91
2017-10-29T01:34:27.985Z,996.00
2017-10-29T01:35:27.981Z,996.07
2017-10-29T01:36:27.968Z,995.79
2017-10-29T01:37:27.956Z,995.77
2017-10-29T01:38:27.950Z,995.70
2017-10-29T01:39:27.937Z,995.80
2017-10-29T01:40:27.929Z,995.80
2017-10-29T01:41:27.924Z,995.91
2017-10-29T01:42:27.908Z,995.79
2017-10-29T01:43:27.903Z,995.84
2017-10-29T01:44:27.895Z,995.84
2017-10-29T01:45:27.877Z,995.81
2017-10-29T01:46:27.872Z,995.90
2017-10-29T01:47:27.859Z,995.74
2017-10-29T01:48:27.850Z,995.67
2017-10-29T01:49:27.839Z,995.79
2017-10-29T01:50:27.832Z,995.66
2017-10-29T01:51:27.819Z,995.62
2017-10-29T01:52:27.809Z,995.47
2017-10-29T01:53:27.799Z,995.49
2017-10-29T01:54:27.797Z,995.61
2017-10-29T01:55:27.780Z,995.55
2017-10-29T01:56:27.771Z,995.48
2017-10-29T01:57:27.760Z,995.64
2017-10-29T01:58:27.752Z,995.56
2017-10-29T01:59:27.747Z,995.41
2017-10-29T02:00:27.738Z,995.54
2017-10-29T02:01:27.724Z,995.46
2017-10-29T02:02:27.713Z,995.50
2017-10-29T02:03:27.701Z,995.63
2017-10-29T02:04:27.694Z,995.22
2017-10-29T02:05:27.682Z,995.47
2017-10-29T02:06:27.679Z,995.52
2017-10-29T02:07:27.668Z,995.37
2017-10-29T02:08:27.651Z,995.41
2017-10-29T02:09:27.644Z,995.51
2017-10-29T02:10:27.634Z,995.57
2017-10-29T02:11:27.623Z,995.41
2017-10-29T02:12:27.614Z,995.45
2017-10-29T02:13:27.604Z,995.40
2017-10-29T02:14:27.597Z,995.19
2017-10-29T02:15:27.586Z,995.26
2017-10-29T02:16:27.578Z,995.26
2017-10-29T02:17:27.565Z,994.91
2017-10-29T02:18:27.557Z,995.18
2017-10-29T02:19:27.551Z,995.04
2017-10-29T02:20:27.540Z,995.06
2017-10-29T02:21:27.530Z,995.10
2017-10-29T02:22:27.516Z,995.07
2017-10-29T02:23:27.509Z,995.21
2017-10-29T02:24:27.496Z,994.93
2017-10-29T02:25:27.489Z,995.17
2017-10-29T02:26:27.476Z,995.08
2017-10-29T02:27:27.468Z,995.04
2017-10-29T02:28:27.458Z,995.17
2017-10-29T02:29:27.451Z,995.20
2017-10-29T02:30:27.442Z,995.25
2017-10-29T02:31:27.436Z,995.14
2017-10-29T02:32:27.416Z,995.05
2017-10-29T02:33:27.409Z,995.13
2017-10-29T02:34:27.399Z,995.21
2017-10-29T02:35:27.391Z,995.13
2017-10-29T02:36:27.376Z,995.04
2017-10-29T02:37:27.373Z,994.92
2017-10-29T02:38:27.358Z,995.32
2017-10-29T02:39:27.349Z,995.48
2017-10-29T02:40:42.346Z,995.16
2017-10-29T02:41:27.329Z,995.21
2017-10-29T02:42:27.322Z,995.35
2017-10-29T02:43:27.319Z,995.31
2017-10-29T02:44:27.298Z,995.16
2017-10-29T02:45:27.291Z,995.08
2017-10-29T02:46:27.284Z,995.38
2017-10-29T02:47:27.268Z,995.17
2017-10-29T02:48:27.261Z,995.25
2017-10-29T02:49:27.252Z,995.00
2017-10-29T02:50:27.244Z,995.24
2017-10-29T02:51:27.230Z,995.23
2017-10-29T02:52:27.218Z,995.11
2017-10-29T02:53:27.208Z,995.20
2017-10-29T02:54:27.201Z,995.18
2017-10-29T02:55:27.192Z,995.21
2017-10-29T02:56:27.178Z,995.36
2017-10-29T02:57:27.169Z,995.27
2017-10-29T02:58:27.163Z,995.21
2017-10-29T02:59:27.148Z,995.31
2017-10-29T03:00:27.140Z,995.18
2017-10-29T03:01:27.129Z,995.25
2017-10-29T03:02:27.128Z,995.37
2017-10-29T03:03:27.107Z,995.40
2017-10-29T03:04:27.097Z,995.28
2017-10-29T03:05:27.092Z,995.41
2017-10-29T03:06:27.079Z,995.57
2017-10-29T03:07:27.074Z,995.39
2017-10-29T03:08:27.067Z,995.48
2017-10-29T03:09:27.050Z,995.54
2017-10-29T03:10:27.037Z,995.59
2017-10-29T03:11:27.028Z,995.73
2017-10-29T03:12:27.018Z,995.73
2017-10-29T03:13:27.007Z,995.70
2017-10-29T03:14:27.001Z,995.81
2017-10-29T03:15:26.989Z,995.98
2017-10-29T03:16:26.978Z,996.02
2017-10-29T03:17:26.968Z,996.11
2017-10-29T03:18:26.961Z,996.21
2017-10-29T03:19:26.947Z,996.31
2017-10-29T03:20:26.954Z,996.25
2017-10-29T03:21:26.930Z,996.48
2017-10-29T03:22:26.933Z,996.39
2017-10-29T03:23:26.919Z,996.51
2017-10-29T03:24:26.896Z,996.55
2017-10-29T03:25:26.890Z,996.58
2017-10-29T03:26:26.880Z,996.54
2017-10-29T03:27:26.870Z,996.40
2017-10-29T03:28:26.858Z,996.54
2017-10-29T03:29:26.850Z,996.56
2017-10-29T03:30:26.860Z,996.21
2017-10-29T03:31:26.827Z,996.45
2017-10-29T03:32:26.818Z,996.43
2017-10-29T03:33:26.807Z,996.35
2017-10-29T03:34:26.799Z,996.32
2017-10-29T03:35:26.788Z,996.14
2017-10-29T03:36:26.779Z,996.26
2017-10-29T03:37:26.766Z,996.34
2017-10-29T03:38:29.367Z,996.41
2017-10-29T03:39:26.748Z,996.48
2017-10-29T03:40:26.737Z,996.45
2017-10-29T03:41:26.725Z,996.37
2017-10-29T03:42:26.719Z,996.33
2017-10-29T03:43:26.703Z,996.48
2017-10-29T03:44:26.694Z,996.41
2017-10-29T03:45:26.687Z,996.55
2017-10-29T03:46:26.673Z,996.43
2017-10-29T03:47:26.666Z,996.44
2017-10-29T03:48:26.655Z,996.29
2017-10-29T03:49:26.649Z,996.45
2017-10-29T03:50:26.638Z,996.63
2017-10-29T03:51:26.629Z,996.60
2017-10-29T03:52:26.613Z,996.48
2017-10-29T03:53:26.601Z,996.59
2017-10-29T03:54:26.596Z,996.52
2017-10-29T03:55:26.583Z,996.47
2017-10-29T03:56:26.569Z,996.45
2017-10-29T03:57:26.561Z,996.69
2017-10-29T03:58:26.549Z,996.56
2017-10-29T03:59:26.539Z,996.55
2017-10-29T04:00:26.528Z,996.58
2017-10-29T04:01:26.520Z,996.55
2017-10-29T04:02:26.509Z,996.50
2017-10-29T04:03:26.501Z,996.52
2017-10-29T04:04:26.488Z,996.43
2017-10-29T04:05:26.477Z,996.55
2017-10-29T04:06:26.468Z,996.54
2017-10-29T04:07:26.456Z,996.40
2017-10-29T04:08:26.447Z,996.63
2017-10-29T04:09:26.435Z,996.94
2017-10-29T04:10:26.427Z,996.88
2017-10-29T04:11:26.416Z,996.70
2017-10-29T04:12:26.405Z,996.64
2017-10-29T04:13:26.395Z,996.71
2017-10-29T04:14:26.383Z,996.54
2017-10-29T04:15:26.380Z,996.66
2017-10-29T04:16:26.363Z,996.53
2017-10-29T04:17:26.353Z,996.61
2017-10-29T04:18:26.341Z,996.60
2017-10-29T04:19:26.331Z,996.70
2017-10-29T04:20:26.319Z,996.72
2017-10-29T04:21:26.318Z,996.71
2017-10-29T04:22:26.298Z,996.78
2017-10-29T04:23:26.288Z,996.86
2017-10-29T04:24:26.277Z,996.78
2017-10-29T04:25:26.272Z,996.65
2017-10-29T04:26:26.257Z,996.91
2017-10-29T04:27:26.252Z,996.76
2017-10-29T04:28:26.239Z,996.93
2017-10-29T04:29:26.237Z,996.94
2017-10-29T04:30:26.218Z,996.89
2017-10-29T04:31:26.202Z,996.96
2017-10-29T04:32:26.191Z,996.90
2017-10-29T04:33:26.191Z,997.02
2017-10-29T04:34:26.172Z,997.03
2017-10-29T04:35:26.164Z,997.13
2017-10-29T04:36:26.148Z,997.16
2017-10-29T04:37:26.145Z,997.11
2017-10-29T04:38:26.127Z,997.15
2017-10-29T04:39:26.118Z,997.11
2017-10-29T04:40:26.110Z,997.16
2017-10-29T04:41:26.101Z,997.26
2017-10-29T04:42:26.089Z,997.19
2017-10-29T04:43:26.076Z,997.32
2017-10-29T04:44:26.065Z,997.19
2017-10-29T04:45:26.062Z,997.35
2017-10-29T04:46:26.046Z,997.35
2017-10-29T04:47:26.033Z,997.29
2017-10-29T04:48:26.032Z,997.40
2017-10-29T04:49:26.010Z,997.40
2017-10-29T04:50:26.000Z,997.27
2017-10-29T04:51:25.996Z,997.31
2017-10-29T04:52:25.984Z,997.44
2017-10-29T04:53:25.971Z,997.60
2017-10-29T04:54:25.960Z,997.29
2017-10-29T04:55:25.952Z,997.58
2017-10-29T04:56:25.938Z,997.47
2017-10-29T04:57:25.927Z,997.57
2017-10-29T04:58:25.918Z,997.60
2017-10-29T04:59:25.907Z,997.57
2017-10-29T05:00:25.897Z,997.70
2017-10-29T05:01:25.887Z,997.66
2017-10-29T05:02:25.879Z,997.68
2017-10-29T05:03:25.866Z,997.73
2017-10-29T05:04:25.854Z,997.61
2017-10-29T05:05:25.847Z,997.66
2017-10-29T05:06:25.836Z,997.66
2017-10-29T05:07:25.823Z,997.84
2017-10-29T05:08:25.812Z,997.86
2017-10-29T05:09:25.804Z,997.57
2017-10-29T05:10:25.794Z,997.84
2017-10-29T05:11:25.782Z,997.81
2017-10-29T05:12:25.768Z,997.85
2017-10-29T05:13:25.759Z,997.83
2017-10-29T05:14:25.750Z,997.98
2017-10-29T05:15:25.739Z,997.87
2017-10-29T05:16:25.728Z,998.01
2017-10-29T05:17:25.723Z,998.06
2017-10-29T05:18:25.708Z,998.12
2017-10-29T05:19:25.714Z,998.09
2017-10-29T05:20:25.685Z,998.23
2017-10-29T05:21:25.674Z,998.05
2017-10-29T05:22:25.669Z,998.21
2017-10-29T05:23:25.654Z,998.15
2017-10-29T05:24:25.646Z,998.16
2017-10-29T05:25:25.638Z,998.27
2017-10-29T05:26:25.621Z,998.31
2017-10-29T05:27:25.611Z,998.26
2017-10-29T05:28:25.600Z,998.32
2017-10-29T05:29:25.589Z,998.35
2017-10-29T05:30:25.580Z,998.45
2017-10-29T05:31:25.578Z,998.42
2017-10-29T05:32:25.558Z,998.44
2017-10-29T05:33:25.548Z,998.50
2017-10-29T05:34:25.538Z,998.71
2017-10-29T05:35:25.526Z,998.61
2017-10-29T05:36:25.515Z,998.65
2017-10-29T05:37:25.506Z,998.59
2017-10-29T05:38:25.496Z,998.34
2017-10-29T05:39:25.485Z,998.39
2017-10-29T05:40:25.510Z,998.49
2017-10-29T05:41:25.463Z,998.59
2017-10-29T05:42:25.459Z,998.47
2017-10-29T05:43:25.440Z,998.72
2017-10-29T05:44:25.434Z,998.72
2017-10-29T05:45:25.420Z,998.77
2017-10-29T05:46:25.415Z,998.69
2017-10-29T05:47:25.401Z,998.48
2017-10-29T05:48:25.388Z,998.66
2017-10-29T05:49:25.378Z,998.73
2017-10-29T05:50:25.372Z,998.71
2017-10-29T05:51:25.359Z,998.68
2017-10-29T05:52:25.345Z,998.65
2017-10-29T05:53:25.334Z,998.67
2017-10-29T05:54:25.324Z,998.71
2017-10-29T05:55:25.315Z,998.93
2017-10-29T05:56:25.307Z,998.81
2017-10-29T05:57:25.292Z,998.95
2017-10-29T05:58:25.302Z,999.02
2017-10-29T05:59:25.274Z,999.07
2017-10-29T06:00:25.260Z,998.92
2017-10-29T06:01:25.248Z,999.09
2017-10-29T06:02:25.240Z,999.10
2017-10-29T06:03:25.228Z,999.17
2017-10-29T06:04:25.217Z,999.13
2017-10-29T06:05:25.215Z,999.14
2017-10-29T06:06:25.195Z,999.24
2017-10-29T06:07:25.187Z,999.19
2017-10-29T06:08:25.171Z,999.25
2017-10-29T06:09:25.163Z,999.38
2017-10-29T06:10:25.149Z,999.45
2017-10-29T06:11:25.145Z,999.49
2017-10-29T06:12:25.128Z,999.52
2017-10-29T06:13:25.115Z,999.37
2017-10-29T06:14:25.119Z,999.50
2017-10-29T06:15:25.096Z,999.52
2017-10-29T06:16:25.092Z,999.55
2017-10-29T06:17:25.073Z,999.48
2017-10-29T06:18:25.065Z,999.62
2017-10-29T06:19:25.062Z,999.60
2017-10-29T06:20:25.045Z,999.62
2017-10-29T06:21:25.033Z,999.59
2017-10-29T06:22:25.019Z,999.66
2017-10-29T06:23:25.009Z,999.74
2017-10-29T06:24:25.000Z,999.81
2017-10-29T06:25:24.987Z,999.79
2017-10-29T06:26:24.976Z,999.77
2017-10-29T06:27:24.985Z,999.83
2017-10-29T06:28:24.955Z,999.82
2017-10-29T06:29:24.941Z,999.84
2017-10-29T06:30:24.930Z,999.80
2017-10-29T06:31:24.933Z,999.85
2017-10-29T06:32:24.910Z,999.84
2017-10-29T06:33:24.898Z,999.96
2017-10-29T06:34:24.891Z,999.93
2017-10-29T06:35:24.878Z,999.93
2017-10-29T06:36:24.863Z,1000.06
2017-10-29T06:37:24.857Z,1000.08
2017-10-29T06:38:24.844Z,1000.19
2017-10-29T06:39:24.839Z,1000.05
2017-10-29T06:40:24.820Z,999.96
2017-10-29T06:41:24.816Z,1000.14
2017-10-29T06:42:24.799Z,1000.20
2017-10-29T06:43:24.789Z,1000.17
2017-10-29T06:44:24.776Z,1000.20
2017-10-29T06:45:24.776Z,1000.25
2017-10-29T06:46:24.756Z,1000.07
2017-10-29T06:47:24.744Z,1000.14
2017-10-29T06:48:24.733Z,1000.02
2017-10-29T06:49:24.723Z,1000.26
2017-10-29T06:50:24.712Z,1000.37
2017-10-29T06:51:24.699Z,999.90
2017-10-29T06:52:24.690Z,1000.41
2017-10-29T06:53:24.677Z,1000.47
2017-10-29T06:54:24.671Z,1000.43
2017-10-29T06:55:24.656Z,1000.53
2017-10-29T06:56:24.644Z,1000.58
2017-10-29T06:57:24.637Z,1000.50
2017-10-29T06:58:24.624Z,1000.45
2017-10-29T06:59:24.612Z,1000.47
2017-10-29T07:00:24.608Z,1000.58
2017-10-29T07:01:24.589Z,1000.59
2017-10-29T07:02:24.578Z,1000.55
2017-10-29T07:03:24.568Z,1000.55
2017-10-29T07:04:24.566Z,1000.62
2017-10-29T07:05:24.545Z,1000.65
2017-10-29T07:06:24.551Z,1000.65
2017-10-29T07:07:24.522Z,1000.71
2017-10-29T07:08:24.513Z,1000.79
2017-10-29T07:09:24.501Z,1000.79
2017-10-29T07:10:24.491Z,1000.80
2017-10-29T07:11:24.482Z,1000.91
2017-10-29T07:12:24.475Z,1000.89
2017-10-29T07:13:24.457Z,1000.98
2017-10-29T07:14:24.447Z,1000.90
2017-10-29T07:15:24.436Z,1000.96
2017-10-29T07:16:24.433Z,1001.02
2017-10-29T07:17:24.420Z,1001.12
2017-10-29T07:18:24.403Z,1001.03
2017-10-29T07:19:24.392Z,1001.04
2017-10-29T07:20:24.380Z,1001.03
2017-10-29T07:21:24.380Z,1001.17
2017-10-29T07:22:24.360Z,1001.00
2017-10-29T07:23:24.349Z,1001.05
2017-10-29T07:24:24.344Z,1001.15
2017-10-29T07:25:24.330Z,1001.22
2017-10-29T07:26:24.315Z,1001.34
2017-10-29T07:27:24.305Z,1001.32
2017-10-29T07:28:24.295Z,1001.41
2017-10-29T07:29:24.286Z,1001.28
2017-10-29T07:30:24.272Z,1001.23
2017-10-29T07:31:24.262Z,1001.38
2017-10-29T07:32:24.252Z,1001.56
2017-10-29T07:33:24.240Z,1001.52
2017-10-29T07:34:24.234Z,1001.44
2017-10-29T07:35:24.221Z,1001.48
2017-10-29T07:36:24.208Z,1001.59
2017-10-29T07:37:24.197Z,1001.55
2017-10-29T07:38:24.187Z,1001.48
2017-10-29T07:39:24.178Z,1001.65
2017-10-29T07:40:24.163Z,1001.63
2017-10-29T07:41:24.159Z,1001.61
2017-10-29T07:42:24.143Z,1001.71
2017-10-29T07:43:24.140Z,1001.65
2017-10-29T07:44:24.125Z,1001.66
2017-10-29T07:45:24.113Z,1001.71
2017-10-29T07:46:24.102Z,1001.77
2017-10-29T07:47:24.096Z,1001.82
2017-10-29T07:48:24.079Z,1001.84
2017-10-29T07:49:24.072Z,1001.92
2017-10-29T07:50:24.059Z,1001.83
2017-10-29T07:51:24.051Z,1001.91
2017-10-29T07:52:24.035Z,1001.88
2017-10-29T07:53:24.027Z,1002.01
2017-10-29T07:54:24.015Z,1001.94
2017-10-29T07:55:24.007Z,1001.95
2017-10-29T07:56:23.993Z,1002.05
2017-10-29T07:57:23.983Z,1002.07
2017-10-29T07:58:23.972Z,1002.04
2017-10-29T07:59:23.968Z,1001.98
2017-10-29T08:00:23.951Z,1002.18
2017-10-29T08:01:23.940Z,1002.16
2017-10-29T08:02:23.935Z,1002.23
2017-10-29T08:03:23.920Z,1002.19
2017-10-29T08:04:23.911Z,1002.20
2017-10-29T08:05:23.898Z,1002.24
2017-10-29T08:06:23.892Z,1002.25
2017-10-29T08:07:23.876Z,1002.28
2017-10-29T08:08:23.871Z,1002.46
2017-10-29T08:09:23.856Z,1002.48
2017-10-29T08:10:23.849Z,1002.42
2017-10-29T08:11:23.835Z,1002.50
2017-10-29T08:12:23.824Z,1002.55
2017-10-29T08:13:23.842Z,1002.62
2017-10-29T08:14:23.802Z,1002.57
2017-10-29T08:15:23.793Z,1002.63
2017-10-29T08:16:23.785Z,1002.61
2017-10-29T08:17:23.774Z,1002.71
2017-10-29T08:18:23.764Z,1002.69
2017-10-29T08:19:23.755Z,1002.68
2017-10-29T08:20:23.741Z,1002.56
2017-10-29T08:21:23.731Z,1002.61
2017-10-29T08:22:23.721Z,1002.64
2017-10-29T08:23:23.716Z,1002.65
2017-10-29T08:24:23.699Z,1002.71
2017-10-29T08:25:23.688Z,1002.73
2017-10-29T08:26:23.680Z,1002.72
2017-10-29T08:27:23.668Z,1002.76
2017-10-29T08:28:23.660Z,1002.81
2017-10-29T08:29:23.654Z,1002.84
2017-10-29T08:30:23.639Z,1002.80
2017-10-29T08:31:23.634Z,1002.81
2017-10-29T08:32:23.618Z,1002.97
2017-10-29T08:33:23.608Z,1002.91
2017-10-29T08:34:23.599Z,1002.86
2017-10-29T08:35:23.588Z,1002.92
2017-10-29T08:36:23.577Z,1002.96
2017-10-29T08:37:23.583Z,1002.94
2017-10-29T08:38:23.559Z,1002.90
2017-10-29T08:39:23.549Z,1002.88
2017-10-29T08:40:23.539Z,1003.04
2017-10-29T08:41:23.534Z,1002.94
2017-10-29T08:42:23.522Z,1002.99
2017-10-29T08:43:23.514Z,1003.09
2017-10-29T08:44:23.501Z,1002.91
2017-10-29T08:45:23.494Z,1003.04
2017-10-29T08:46:23.484Z,1003.11
2017-10-29T08:47:23.476Z,1003.18
2017-10-29T08:48:23.468Z,1003.17
2017-10-29T08:49:23.457Z,1003.19
2017-10-29T08:50:23.449Z,1003.30
2017-10-29T08:51:23.442Z,1003.31
2017-10-29T08:52:23.432Z,1003.37
2017-10-29T08:53:23.424Z,1003.37
2017-10-29T08:54:23.415Z,1003.36
2017-10-29T08:55:23.409Z,1003.33
2017-10-29T08:56:23.406Z,1003.39
2017-10-29T08:57:23.396Z,1003.36
2017-10-29T08:58:23.385Z,1003.47
2017-10-29T08:59:23.378Z,1003.42
2017-10-29T09:00:23.369Z,1003.35
2017-10-29T09:01:23.365Z,1003.45
2017-10-29T09:02:23.362Z,1003.44
2017-10-29T09:03:23.350Z,1003.47
2017-10-29T09:04:23.343Z,1003.46
2017-10-29T09:05:23.335Z,1003.29
2017-10-29T09:06:23.331Z,1003.63
2017-10-29T09:07:23.322Z,1003.67
2017-10-29T09:08:23.315Z,1003.49
2017-10-29T09:09:23.311Z,1003.56
2017-10-29T09:10:23.305Z,1003.62
2017-10-29T09:11:23.296Z,1003.66
2017-10-29T09:12:23.291Z,1003.50
2017-10-29T09:13:23.288Z,1003.58
2017-10-29T09:14:23.283Z,1003.54
2017-10-29T09:15:23.267Z,1003.55
2017-10-29T09:16:23.258Z,1003.55
2017-10-29T09:17:23.262Z,1003.68
2017-10-29T09:18:23.243Z,1003.71
2017-10-29T09:19:23.237Z,1003.71
2017-10-29T09:20:23.233Z,1003.74
2017-10-29T09:21:23.222Z,1003.59
2017-10-29T09:22:23.214Z,1003.78
2017-10-29T09:23:23.208Z,1003.79
2017-10-29T09:24:23.199Z,1003.98
2017-10-29T09:25:23.190Z,1003.99
2017-10-29T09:26:23.183Z,1003.98
2017-10-29T09:27:23.177Z,1003.96
2017-10-29T09:28:23.170Z,1004.02
2017-10-29T09:29:23.162Z,1004.05
2017-10-29T09:30:23.154Z,1003.92
2017-10-29T09:31:23.157Z,1003.98
2017-10-29T09:32:23.143Z,1003.96
2017-10-29T09:33:23.137Z,1003.93
2017-10-29T09:34:23.128Z,1004.05
2017-10-29T09:35:23.124Z,1004.03
2017-10-29T09:36:23.114Z,1004.19
2017-10-29T09:37:23.252Z,1003.95
2017-10-29T09:38:23.106Z,1003.94
2017-10-29T09:39:23.098Z,1004.11
2017-10-29T09:40:23.091Z,1004.26
2017-10-29T09:41:23.082Z,1004.34
2017-10-29T09:42:23.078Z,1004.31
2017-10-29T09:43:23.074Z,1004.31
2017-10-29T09:44:23.068Z,1004.42
2017-10-29T09:45:23.061Z,1004.31
2017-10-29T09:46:23.057Z,1004.30
2017-10-29T09:47:23.050Z,1004.21
2017-10-29T09:48:23.042Z,1004.33
2017-10-29T09:49:23.049Z,1004.35
2017-10-29T09:50:23.037Z,1004.34
2017-10-29T09:51:23.039Z,1004.35
2017-10-29T09:52:23.031Z,1004.42
2017-10-29T09:53:23.020Z,1004.52
2017-10-29T09:54:23.019Z,1004.37
2017-10-29T09:55:23.013Z,1004.32
2017-10-29T09:56:23.007Z,1004.53
2017-10-29T09:57:23.004Z,1004.51
2017-10-29T09:58:23.000Z,1004.50
2017-10-29T09:59:22.996Z,1004.54
2017-10-29T10:00:22.993Z,1004.53
2017-10-29T10:01:22.987Z,1004.53
2017-10-29T10:02:22.982Z,1004.53
2017-10-29T10:03:22.980Z,1004.55
2017-10-29T10:04:22.973Z,1004.58
2017-10-29T10:05:22.973Z,1004.68
2017-10-29T10:06:22.970Z,1004.65
2017-10-29T10:07:22.958Z,1004.66
2017-10-29T10:08:22.955Z,1004.67
2017-10-29T10:09:22.955Z,1004.78
2017-10-29T10:10:22.947Z,1004.64
2017-10-29T10:11:22.945Z,1004.73
2017-10-29T10:12:22.937Z,1004.80
2017-10-29T10:13:22.933Z,1004.65
2017-10-29T10:14:22.931Z,1004.80
2017-10-29T10:15:22.941Z,1005.02
2017-10-29T10:16:22.919Z,1004.88
2017-10-29T10:17:22.915Z,1004.97
2017-10-29T10:18:22.911Z,1004.86
2017-10-29T10:19:22.911Z,1004.96
2017-10-29T10:20:22.902Z,1004.95
2017-10-29T10:21:22.912Z,1004.86
2017-10-29T10:22:22.892Z,1004.83
2017-10-29T10:23:22.891Z,1004.99
2017-10-29T10:24:22.884Z,1004.91
2017-10-29T10:25:22.880Z,1005.02
2017-10-29T10:26:22.870Z,1005.06
2017-10-29T10:27:22.866Z,1005.27
2017-10-29T10:28:22.859Z,1005.25
2017-10-29T10:29:22.856Z,1005.32
2017-10-29T10:30:22.855Z,1005.30
2017-10-29T10:31:22.843Z,1005.34
2017-10-29T10:32:22.839Z,1005.36
2017-10-29T10:33:22.829Z,1005.27
2017-10-29T10:34:22.825Z,1005.34
2017-10-29T10:35:22.816Z,1005.29
2017-10-29T10:36:22.826Z,1005.41
2017-10-29T10:37:22.806Z,1005.45
2017-10-29T10:38:22.797Z,1005.47
2017-10-29T10:39:22.792Z,1005.60
2017-10-29T10:40:22.802Z,1005.34
2017-10-29T10:41:22.776Z,1005.46
2017-10-29T10:42:22.774Z,1005.40
2017-10-29T10:43:22.765Z,1005.42
2017-10-29T10:44:22.758Z,1005.49
2017-10-29T10:45:22.755Z,1005.59
2017-10-29T10:46:22.748Z,1005.51
2017-10-29T10:47:22.743Z,1005.48
2017-10-29T10:48:22.743Z,1005.35
2017-10-29T10:49:22.729Z,1005.47
2017-10-29T10:50:22.725Z,1005.44
2017-10-29T10:51:22.721Z,1005.60
2017-10-29T10:52:22.722Z,1005.45
2017-10-29T10:53:22.711Z,1005.54
2017-10-29T10:54:22.709Z,1005.60
2017-10-29T10:55:22.704Z,1005.54
2017-10-29T10:56:22.699Z,1005.25
2017-10-29T10:57:22.696Z,1005.46
2017-10-29T10:58:22.692Z,1005.56
2017-10-29T10:59:22.695Z,1005.41
2017-10-29T11:00:22.683Z,1005.48
2017-10-29T11:01:22.686Z,1005.47
2017-10-29T11:02:22.687Z,1005.54
2017-10-29T11:03:22.678Z,1005.51
2017-10-29T11:04:22.673Z,1005.48
2017-10-29T11:05:22.667Z,1005.54
2017-10-29T11:06:22.664Z,1005.58
2017-10-29T11:07:22.664Z,1005.59
2017-10-29T11:08:22.661Z,1005.60
2017-10-29T11:09:22.656Z,1005.54
2017-10-29T11:10:22.655Z,1005.58
2017-10-29T11:11:22.651Z,1005.52
2017-10-29T11:12:22.651Z,1005.60
2017-10-29T11:13:22.644Z,1005.26
2017-10-29T11:14:22.646Z,1005.51
2017-10-29T11:15:22.640Z,1005.64
2017-10-29T11:16:22.641Z,1005.51
2017-10-29T11:17:22.638Z,1005.57
2017-10-29T11:18:22.633Z,1005.64
2017-10-29T11:19:22.632Z,1005.65
2017-10-29T11:20:22.627Z,1005.68
2017-10-29T11:21:22.625Z,1005.59
2017-10-29T11:22:22.630Z,1005.72
2017-10-29T11:23:22.619Z,1005.79
2017-10-29T11:24:22.614Z,1005.70
2017-10-29T11:25:22.614Z,1005.75
2017-10-29T11:26:22.609Z,1005.77
2017-10-29T11:27:22.609Z,1005.78
2017-10-29T11:28:22.603Z,1005.81
2017-10-29T11:29:22.606Z,1005.78
2017-10-29T11:30:22.597Z,1005.78
2017-10-29T11:31:22.594Z,1005.69
2017-10-29T11:32:22.590Z,1005.62
2017-10-29T11:33:22.588Z,1005.57
2017-10-29T11:34:22.583Z,1005.79
2017-10-29T11:35:22.580Z,1005.78
2017-10-29T11:36:22.575Z,1005.85
2017-10-29T11:37:22.573Z,1005.85
2017-10-29T11:38:22.568Z,1005.82
2017-10-29T11:39:22.574Z,1005.87
2017-10-29T11:40:22.561Z,1006.00
2017-10-29T11:41:22.556Z,1006.04
2017-10-29T11:42:22.555Z,1006.05
2017-10-29T11:43:22.554Z,1006.04
2017-10-29T11:44:22.565Z,1006.25
2017-10-29T11:45:22.544Z,1006.25
2017-10-29T11:46:22.539Z,1006.01
2017-10-29T11:47:22.533Z,1006.01
2017-10-29T11:48:22.529Z,1006.15
2017-10-29T11:49:22.535Z,1006.12
2017-10-29T11:50:22.518Z,1006.07
2017-10-29T11:51:22.514Z,1006.10
2017-10-29T11:52:22.509Z,1006.11
2017-10-29T11:53:22.505Z,1006.05
2017-10-29T11:54:22.505Z,1005.99
2017-10-29T11:55:22.496Z,1006.02
2017-10-29T11:56:22.491Z,1006.00
2017-10-29T11:57:22.486Z,1006.00
2017-10-29T11:58:22.480Z,1006.03
2017-10-29T11:59:22.475Z,1005.98
2017-10-29T12:00:22.472Z,1006.13
2017-10-29T12:01:22.464Z,1006.11
2017-10-29T12:02:22.460Z,1006.16
2017-10-29T12:03:22.456Z,1006.19
2017-10-29T12:04:22.451Z,1006.15
2017-10-29T12:05:22.456Z,1006.14
2017-10-29T12:06:22.459Z,1005.99
2017-10-29T12:07:22.443Z,1006.02
2017-10-29T12:08:22.436Z,1006.09
2017-10-29T12:09:22.434Z,1006.08
2017-10-29T12:10:22.431Z,1006.16
2017-10-29T12:11:22.426Z,1006.17
2017-10-29T12:12:22.431Z,1006.14
2017-10-29T12:13:22.418Z,1006.18
2017-10-29T12:14:22.419Z,1006.26
2017-10-29T12:15:22.411Z,1006.23
2017-10-29T12:16:22.409Z,1006.17
2017-10-29T12:17:22.410Z,1006.20